Time;durP1;ratioP1;P1;durP2;ratioP2;P2;SDS_P1;SDS_P2;PMS_P1;PMS_P2;Temp;Humidity;BMP_temperature;BMP_pressure;BME280_temperature;BME280_humidity;BME280_pressure;Samples;Min_cycle;Max_cycle;Signal;HPM_P1;HPM_P2
2022/02/28 00:00:13;;;;;;;12.23;11.03;;;2.20;99.90;;;;;;4995417;28;20456;-78
2022/02/28 00:02:40;;;;;;;12.87;11.47;;;2.10;99.90;;;;;;4995094;28;20440;-78
2022/02/28 00:05:09;;;;;;;13.77;11.90;;;2.10;99.90;;;;;;4989834;28;20434;-78
2022/02/28 00:07:36;;;;;;;12.67;11.37;;;2.10;99.90;;;;;;4993830;28;20474;-77
2022/02/28 00:10:04;;;;;;;12.73;11.50;;;2.20;99.90;;;;;;4977327;28;20518;-77
2022/02/28 00:12:31;;;;;;;13.20;11.80;;;2.20;99.90;;;;;;4990712;28;20440;-77
2022/02/28 00:14:58;;;;;;;13.43;11.93;;;2.30;99.90;;;;;;4991175;28;20448;-77
2022/02/28 00:17:25;;;;;;;12.00;10.80;;;2.40;99.90;;;;;;4973719;28;20508;-77
2022/02/28 00:19:52;;;;;;;11.83;10.67;;;2.30;99.90;;;;;;4970994;28;20474;-78
2022/02/28 00:22:20;;;;;;;13.20;10.83;;;2.30;99.90;;;;;;4993442;28;20873;-78
2022/02/28 00:24:47;;;;;;;13.53;10.97;;;2.20;99.90;;;;;;4974761;28;20454;-78
2022/02/28 00:27:14;;;;;;;11.00;10.00;;;2.10;99.90;;;;;;4975450;28;20479;-77
2022/02/28 00:29:42;;;;;;;13.23;11.93;;;2.10;99.90;;;;;;4976996;28;20487;-78
2022/02/28 00:32:09;;;;;;;12.07;10.80;;;2.10;99.90;;;;;;4971614;28;20719;-77
2022/02/28 00:34:36;;;;;;;11.97;10.77;;;2.20;99.90;;;;;;4971729;28;20463;-78
2022/02/28 00:37:05;;;;;;;11.93;10.83;;;2.20;99.90;;;;;;4992945;28;20828;-77
2022/02/28 00:39:33;;;;;;;11.20;10.13;;;2.10;99.90;;;;;;4992304;28;20441;-77
2022/02/28 00:42:00;;;;;;;14.87;11.37;;;2.10;99.90;;;;;;4995039;28;20466;-78
2022/02/28 00:44:27;;;;;;;12.83;11.53;;;2.00;99.90;;;;;;4982514;28;20519;-77
2022/02/28 00:46:54;;;;;;;12.83;11.60;;;2.00;99.90;;;;;;4974899;28;20918;-77
2022/02/28 00:49:21;;;;;;;13.07;11.57;;;2.00;99.90;;;;;;4974103;28;20502;-77
2022/02/28 00:51:49;;;;;;;13.67;11.20;;;2.00;99.90;;;;;;4975349;28;20444;-77
2022/02/28 00:54:16;;;;;;;12.20;10.47;;;2.00;99.90;;;;;;4958517;28;20455;-77
2022/02/28 00:56:44;;;;;;;11.80;10.60;;;1.90;99.90;;;;;;4956063;28;20479;-77
2022/02/28 00:59:11;;;;;;;13.17;11.73;;;1.80;99.90;;;;;;4958056;28;20450;-76
2022/02/28 01:01:38;;;;;;;13.17;11.70;;;1.70;99.90;;;;;;4992893;28;20526;-77
2022/02/28 01:04:06;;;;;;;13.97;11.43;;;1.70;99.90;;;;;;4993026;28;20436;-78
2022/02/28 01:06:34;;;;;;;13.57;11.60;;;1.70;99.90;;;;;;4993332;28;20470;-77
2022/02/28 01:09:01;;;;;;;12.33;11.10;;;1.80;99.90;;;;;;4968726;28;20526;-78
2022/02/28 01:11:28;;;;;;;14.67;11.93;;;1.80;99.90;;;;;;4957103;28;20965;-77
2022/02/28 01:13:57;;;;;;;14.27;11.57;;;1.80;99.90;;;;;;4960162;28;20451;-79
2022/02/28 01:16:24;;;;;;;11.87;10.67;;;1.70;99.90;;;;;;4990834;28;20459;-77
2022/02/28 01:18:52;;;;;;;12.23;11.03;;;1.60;99.90;;;;;;4994355;28;20432;-77
2022/02/28 01:21:18;;;;;;;12.63;11.43;;;1.50;99.90;;;;;;4992445;28;20442;-78
2022/02/28 01:23:46;;;;;;;13.63;12.30;;;1.40;99.90;;;;;;4974923;28;20450;-77
2022/02/28 01:26:13;;;;;;;13.03;11.73;;;1.30;99.90;;;;;;4974662;28;21142;-78
2022/02/28 01:28:40;;;;;;;13.23;10.90;;;1.20;99.90;;;;;;4992382;28;20474;-77
2022/02/28 01:31:08;;;;;;;12.50;11.20;;;1.10;99.90;;;;;;4979986;28;20898;-76
2022/02/28 01:33:36;;;;;;;12.57;11.27;;;1.10;99.90;;;;;;4975541;28;20474;-78
2022/02/28 01:36:03;;;;;;;12.70;11.13;;;1.00;99.90;;;;;;4997682;28;20458;-76
2022/02/28 01:38:30;;;;;;;12.27;11.07;;;1.00;99.90;;;;;;4978142;28;20444;-77
2022/02/28 01:40:56;;;;;;;12.57;11.27;;;1.00;99.90;;;;;;4976054;28;20982;-77
2022/02/28 01:43:24;;;;;;;13.43;12.07;;;1.00;99.90;;;;;;4977109;28;20456;-78
2022/02/28 01:45:52;;;;;;;12.63;11.33;;;1.00;99.90;;;;;;4978540;28;20583;-78
2022/02/28 01:48:20;;;;;;;13.50;12.00;;;0.90;99.90;;;;;;4979295;28;20473;-78
2022/02/28 01:50:47;;;;;;;12.67;11.43;;;0.90;99.90;;;;;;4979877;28;20441;-78
2022/02/28 01:53:14;;;;;;;14.17;11.80;;;0.80;99.90;;;;;;4979534;28;20480;-77
2022/02/28 01:55:41;;;;;;;13.37;11.33;;;0.80;99.90;;;;;;4974233;28;20481;-77
2022/02/28 01:58:08;;;;;;;14.93;12.37;;;0.70;99.90;;;;;;4971372;28;20519;-77
2022/02/28 02:00:35;;;;;;;12.47;11.27;;;0.60;99.90;;;;;;4990545;28;20428;-75
2022/02/28 02:03:03;;;;;;;14.90;11.73;;;0.60;99.90;;;;;;4994630;28;20440;-75
2022/02/28 02:05:32;;;;;;;13.13;11.70;;;0.60;99.90;;;;;;4977902;28;20473;-77
2022/02/28 02:08:00;;;;;;;15.17;11.70;;;0.50;99.90;;;;;;4971413;28;20457;-76
2022/02/28 02:10:28;;;;;;;14.07;12.53;;;0.60;99.90;;;;;;4966676;28;20452;-76
2022/02/28 02:12:54;;;;;;;13.60;12.20;;;0.60;99.90;;;;;;4991257;28;20447;-76
2022/02/28 02:15:21;;;;;;;13.93;11.93;;;0.60;99.90;;;;;;4961683;28;20485;-78
2022/02/28 02:17:48;;;;;;;14.73;13.00;;;0.50;99.90;;;;;;4960363;28;20995;-76
2022/02/28 02:20:35;;;;;;;13.23;11.93;;;0.50;99.90;;;;;;4979257;28;20437;-77
2022/02/28 02:23:04;;;;;;;15.90;12.27;;;0.50;99.90;;;;;;4961297;28;20461;-77
2022/02/28 02:25:32;;;;;;;13.23;11.83;;;0.40;99.90;;;;;;4961157;28;20497;-77
2022/02/28 02:27:59;;;;;;;13.77;12.27;;;0.40;99.90;;;;;;4960662;28;20452;-77
2022/02/28 02:30:28;;;;;;;12.60;11.30;;;0.30;99.90;;;;;;4972994;28;20512;-77
2022/02/28 02:32:57;;;;;;;15.03;12.37;;;0.30;99.90;;;;;;4973349;28;20467;-77
2022/02/28 02:35:24;;;;;;;14.93;11.70;;;0.20;99.90;;;;;;4965694;28;20468;-77
2022/02/28 02:37:52;;;;;;;13.07;11.73;;;0.20;99.90;;;;;;4969820;28;20458;-77
2022/02/28 02:40:19;;;;;;;13.70;12.50;;;0.20;99.90;;;;;;4975991;28;20448;-77
2022/02/28 02:42:46;;;;;;;13.37;11.97;;;0.20;99.90;;;;;;4978471;28;20456;-77
2022/02/28 02:45:14;;;;;;;13.33;11.83;;;0.20;99.90;;;;;;4976566;28;20478;-77
2022/02/28 02:47:41;;;;;;;14.37;12.87;;;0.20;99.90;;;;;;4976654;28;20453;-77
2022/02/28 02:50:12;;;;;;;14.50;12.20;;;0.30;99.90;;;;;;4977172;28;20483;-77
2022/02/28 02:52:39;;;;;;;12.40;11.10;;;0.30;99.90;;;;;;4978206;28;20451;-77
2022/02/28 02:55:09;;;;;;;14.47;12.17;;;0.40;99.90;;;;;;4975599;28;20454;-77
2022/02/28 02:57:35;;;;;;;13.27;11.80;;;0.30;99.90;;;;;;4969535;28;20451;-77
2022/02/28 03:00:06;;;;;;;14.13;11.90;;;0.30;99.90;;;;;;4978595;28;20971;-76
2022/02/28 03:02:39;;;;;;;15.00;12.57;;;0.20;99.90;;;;;;4976604;28;20535;-77
2022/02/28 03:05:08;;;;;;;13.20;11.90;;;0.20;99.90;;;;;;4978926;28;20456;-78
2022/02/28 03:07:35;;;;;;;14.63;13.13;;;0.10;99.90;;;;;;4978437;28;20819;-77
2022/02/28 03:10:02;;;;;;;14.87;12.87;;;0.10;99.90;;;;;;4971329;28;21035;-75
2022/02/28 03:12:30;;;;;;;15.67;12.83;;;0.10;99.90;;;;;;4994748;28;20701;-75
2022/02/28 03:14:59;;;;;;;13.17;11.90;;;0.10;99.90;;;;;;4976440;28;20587;-75
2022/02/28 03:17:26;;;;;;;14.00;12.50;;;0.00;99.90;;;;;;4973235;28;20459;-76
2022/02/28 03:19:53;;;;;;;15.80;12.57;;;0.00;99.90;;;;;;4986148;28;20464;-75
2022/02/28 03:22:20;;;;;;;14.30;11.73;;;0.00;99.90;;;;;;4975951;28;20475;-76
2022/02/28 03:24:46;;;;;;;15.10;12.70;;;0.00;99.90;;;;;;4987932;28;20789;-76
2022/02/28 03:27:13;;;;;;;17.03;12.73;;;0.10;99.90;;;;;;4959360;28;20575;-75
2022/02/28 03:29:46;;;;;;;14.40;12.90;;;0.00;99.90;;;;;;4975751;28;20476;-76
2022/02/28 03:32:13;;;;;;;16.63;13.30;;;-0.10;99.90;;;;;;4974781;28;20453;-75
2022/02/28 03:34:41;;;;;;;16.77;12.47;;;-0.30;99.90;;;;;;4967862;28;20977;-75
2022/02/28 03:37:08;;;;;;;14.17;12.77;;;-0.40;99.90;;;;;;4976467;28;20472;-77
2022/02/28 03:39:35;;;;;;;15.50;12.60;;;-0.40;99.90;;;;;;4977016;28;20481;-77
2022/02/28 03:42:02;;;;;;;14.00;11.90;;;-0.40;99.90;;;;;;4981762;28;20449;-78
2022/02/28 03:44:30;;;;;;;14.20;12.67;;;-0.50;99.90;;;;;;4977579;28;20452;-80
2022/02/28 03:47:05;;;;;;;13.47;11.97;;;-0.50;99.90;;;;;;4979443;28;20469;-79
2022/02/28 03:50:07;;;;;;;15.33;13.70;;;-0.50;99.90;;;;;;4974994;28;20620;-79
2022/02/28 03:52:35;;;;;;;14.77;13.13;;;-0.60;99.90;;;;;;4969314;28;20445;-78
2022/02/28 03:55:10;;;;;;;16.37;13.30;;;-0.60;99.90;;;;;;4979221;28;20954;-78
2022/02/28 03:57:38;;;;;;;16.33;12.87;;;-0.50;99.90;;;;;;4979488;28;20872;-78
2022/02/28 04:00:08;;;;;;;15.77;13.30;;;-0.60;99.90;;;;;;4979883;28;20491;-78
2022/02/28 04:02:41;;;;;;;15.00;13.40;;;-0.70;99.90;;;;;;4996022;28;20469;-79
2022/02/28 04:05:09;;;;;;;16.83;14.13;;;-0.80;99.90;;;;;;4975053;28;20485;-79
2022/02/28 04:07:37;;;;;;;16.00;13.53;;;-0.80;99.90;;;;;;4998930;23;20508;-76
2022/02/28 04:10:05;;;;;;;15.03;13.43;;;-0.90;99.90;;;;;;4976391;28;20921;-77
2022/02/28 04:12:33;;;;;;;15.07;13.20;;;-1.00;99.90;;;;;;4977056;28;20970;-78
2022/02/28 04:15:00;;;;;;;14.53;13.03;;;-0.90;99.90;;;;;;4975008;28;20492;-77
2022/02/28 04:17:27;;;;;;;14.47;12.97;;;-0.90;99.90;;;;;;4975288;28;21008;-77
2022/02/28 04:20:14;;;;;;;17.27;13.60;;;-0.90;99.90;;;;;;4979360;28;20492;-78
2022/02/28 04:22:41;;;;;;;15.60;13.97;;;-0.90;99.90;;;;;;4982454;28;20457;-78
2022/02/28 04:25:10;;;;;;;14.13;12.57;;;-1.00;99.90;;;;;;4961477;28;20666;-75
2022/02/28 04:27:37;;;;;;;13.57;12.27;;;-1.00;99.90;;;;;;4955846;28;20560;-76
2022/02/28 04:30:07;;;;;;;15.37;13.40;;;-1.00;99.90;;;;;;4956578;28;20457;-77
2022/02/28 04:32:38;;;;;;;16.17;13.27;;;-1.00;99.90;;;;;;4959043;28;20451;-76
2022/02/28 04:35:09;;;;;;;15.80;14.07;;;-1.10;99.90;;;;;;4949316;28;20495;-76
2022/02/28 04:37:40;;;;;;;15.67;13.97;;;-1.10;99.90;;;;;;4960987;28;20468;-80
2022/02/28 04:40:11;;;;;;;16.53;14.53;;;-1.10;99.90;;;;;;4964463;28;20989;-77
2022/02/28 04:42:39;;;;;;;15.70;14.10;;;-1.20;99.90;;;;;;4961677;28;20508;-77
2022/02/28 04:45:08;;;;;;;14.97;13.37;;;-1.20;99.90;;;;;;4975933;28;20437;-76
2022/02/28 04:47:35;;;;;;;17.23;14.93;;;-1.20;99.90;;;;;;4977416;28;20536;-76
2022/02/28 04:50:21;;;;;;;17.50;13.10;;;-1.30;99.90;;;;;;4979880;28;20512;-77
2022/02/28 04:52:50;;;;;;;17.57;13.77;;;-1.30;99.90;;;;;;4963986;28;20529;-77
2022/02/28 04:55:22;;;;;;;17.43;13.97;;;-1.40;99.90;;;;;;4961827;28;20834;-77
2022/02/28 04:57:50;;;;;;;18.10;14.80;;;-1.50;99.90;;;;;;4962158;28;20504;-76
2022/02/28 05:00:35;;;;;;;17.60;13.93;;;-1.50;99.90;;;;;;4977996;28;20472;-77
2022/02/28 05:03:02;;;;;;;18.87;13.63;;;-1.50;99.90;;;;;;4961242;28;20906;-78
2022/02/28 05:05:30;;;;;;;17.60;14.40;;;-1.50;99.90;;;;;;4966479;28;20488;-78
2022/02/28 05:07:59;;;;;;;17.60;14.30;;;-1.50;99.90;;;;;;4978679;28;20500;-77
2022/02/28 05:10:26;;;;;;;15.97;13.57;;;-1.60;99.90;;;;;;4962996;28;20874;-77
2022/02/28 05:13:00;;;;;;;17.00;14.70;;;-1.60;99.90;;;;;;4963355;28;20881;-77
2022/02/28 05:15:29;;;;;;;18.23;14.00;;;-1.60;99.90;;;;;;4966223;28;20455;-77
2022/02/28 05:17:57;;;;;;;17.63;13.93;;;-1.60;99.90;;;;;;4962593;28;20469;-76
2022/02/28 05:20:23;;;;;;;18.10;14.57;;;-1.60;99.90;;;;;;4980946;28;20501;-77
2022/02/28 05:22:50;;;;;;;19.50;15.33;;;-1.70;99.90;;;;;;4961592;28;20856;-77
2022/02/28 05:25:20;;;;;;;19.73;14.60;;;-1.70;99.90;;;;;;4982517;28;20452;-77
2022/02/28 05:27:48;;;;;;;18.13;14.57;;;-1.70;99.90;;;;;;4971462;28;20473;-77
2022/02/28 05:30:17;;;;;;;19.33;15.17;;;-1.80;99.90;;;;;;4965074;28;20485;-77
2022/02/28 05:32:48;;;;;;;19.20;15.23;;;-1.80;99.90;;;;;;4973826;28;20505;-78
2022/02/28 05:35:23;;;;;;;16.77;15.03;;;-1.70;99.90;;;;;;4960408;28;20781;-77
2022/02/28 05:38:13;;;;;;;18.53;14.50;;;-1.70;99.90;;;;;;4974986;28;20601;-77
2022/02/28 05:40:44;;;;;;;17.37;15.40;;;-1.70;99.90;;;;;;4966125;28;20899;-77
2022/02/28 05:43:13;;;;;;;16.27;14.50;;;-1.80;99.90;;;;;;4977216;28;21061;-77
2022/02/28 05:45:41;;;;;;;16.47;14.43;;;-1.90;99.90;;;;;;4963772;28;20981;-77
2022/02/28 05:48:31;;;;;;;17.87;14.83;;;-1.90;99.90;;;;;;4971643;28;20505;-77
2022/02/28 05:50:59;;;;;;;18.03;14.70;;;-1.90;99.90;;;;;;4962764;28;20947;-77
2022/02/28 05:53:26;;;;;;;17.67;14.03;;;-1.90;99.90;;;;;;4973825;28;20456;-77
2022/02/28 05:55:54;;;;;;;20.43;16.17;;;-1.90;99.90;;;;;;4991785;28;20465;-77
2022/02/28 05:58:21;;;;;;;17.33;15.00;;;-1.90;99.90;;;;;;4973326;28;20457;-77
2022/02/28 06:00:47;;;;;;;16.83;15.03;;;-1.90;99.90;;;;;;4967905;28;20476;-77
2022/02/28 06:03:14;;;;;;;20.07;16.83;;;-1.90;99.90;;;;;;4975867;28;20441;-77
2022/02/28 06:05:41;;;;;;;17.93;15.63;;;-1.90;99.90;;;;;;4983485;28;20495;-77
2022/02/28 06:08:08;;;;;;;19.77;15.80;;;-1.90;99.90;;;;;;4978772;28;20899;-77
2022/02/28 06:10:35;;;;;;;17.73;15.80;;;-1.90;99.90;;;;;;4977045;28;20449;-77
2022/02/28 06:13:03;;;;;;;18.80;15.27;;;-1.90;99.90;;;;;;4962538;28;21219;-77
2022/02/28 06:15:30;;;;;;;20.80;15.93;;;-1.80;99.90;;;;;;4978033;28;20440;-77
2022/02/28 06:17:58;;;;;;;21.30;17.30;;;-1.80;99.90;;;;;;4984455;28;20519;-76
2022/02/28 06:20:25;;;;;;;19.33;15.63;;;-1.80;99.90;;;;;;4955850;28;20497;-76
2022/02/28 06:22:52;;;;;;;22.23;16.03;;;-1.70;99.90;;;;;;4961392;28;20966;-77
2022/02/28 06:25:19;;;;;;;18.00;15.97;;;-1.70;99.90;;;;;;4977481;28;20476;-78
2022/02/28 06:27:46;;;;;;;21.30;16.83;;;-1.70;99.90;;;;;;4977588;28;20560;-77
2022/02/28 06:30:16;;;;;;;18.50;15.90;;;-1.70;99.90;;;;;;4973430;28;20430;-78
2022/02/28 06:32:43;;;;;;;19.53;16.43;;;-1.70;99.90;;;;;;4965861;28;20454;-78
2022/02/28 06:35:10;;;;;;;17.50;15.57;;;-1.60;99.90;;;;;;4981900;28;20445;-77
2022/02/28 06:37:37;;;;;;;16.93;15.03;;;-1.60;99.90;;;;;;4976616;28;20472;-77
2022/02/28 06:40:04;;;;;;;17.87;16.07;;;-1.60;99.90;;;;;;4964117;28;21010;-78
2022/02/28 06:42:31;;;;;;;19.47;14.93;;;-1.50;99.90;;;;;;4967349;28;20461;-78
2022/02/28 06:44:58;;;;;;;17.03;15.10;;;-1.50;99.90;;;;;;4968947;28;20457;-77
2022/02/28 06:47:26;;;;;;;19.47;15.53;;;-1.50;99.90;;;;;;4971188;28;20501;-77
2022/02/28 06:49:53;;;;;;;17.87;15.77;;;-1.30;99.90;;;;;;4952616;28;20450;-80
2022/02/28 06:52:20;;;;;;;22.33;15.93;;;-1.00;99.90;;;;;;4971578;28;20465;-78
2022/02/28 06:54:49;;;;;;;18.27;16.03;;;-0.50;99.90;;;;;;4964765;28;20459;-78
2022/02/28 06:57:15;;;;;;;17.77;15.97;;;0.00;99.90;;;;;;4948609;28;20570;-77
2022/02/28 06:59:42;;;;;;;19.93;16.10;;;0.60;99.90;;;;;;4974669;28;20520;-77
2022/02/28 07:02:09;;;;;;;18.03;16.03;;;1.10;99.90;;;;;;4963106;28;20455;-78
2022/02/28 07:04:47;;;;;;;17.93;16.13;;;1.50;99.90;;;;;;4983976;28;20902;-78
2022/02/28 07:07:17;;;;;;;18.07;16.23;;;1.80;99.90;;;;;;4966292;28;20475;-78
2022/02/28 07:09:44;;;;;;;21.33;17.23;;;2.10;99.90;;;;;;4981617;28;20529;-79
2022/02/28 07:12:11;;;;;;;18.50;16.63;;;2.20;99.90;;;;;;4985100;28;20426;-76
2022/02/28 07:14:39;;;;;;;18.07;16.17;;;2.40;99.90;;;;;;4978738;28;20455;-76
2022/02/28 07:17:06;;;;;;;20.60;16.97;;;2.30;99.90;;;;;;4968454;28;21033;-76
2022/02/28 07:19:33;;;;;;;18.20;16.27;;;2.40;99.90;;;;;;4978109;28;20202;-77
2022/02/28 07:22:02;;;;;;;17.03;15.17;;;2.60;99.90;;;;;;4984728;28;20468;-79
2022/02/28 07:24:29;;;;;;;17.47;15.67;;;2.80;99.90;;;;;;4970175;28;20467;-78
2022/02/28 07:26:56;;;;;;;17.13;15.13;;;3.00;99.90;;;;;;4955566;28;20476;-79
2022/02/28 07:29:22;;;;;;;16.17;14.47;;;2.80;99.90;;;;;;4974169;28;20213;-79
2022/02/28 07:31:49;;;;;;;19.87;16.17;;;2.90;99.90;;;;;;4983636;28;20203;-80
2022/02/28 07:34:16;;;;;;;16.33;14.67;;;2.50;99.90;;;;;;4978387;28;20214;-79
2022/02/28 07:36:43;;;;;;;17.37;15.67;;;2.30;99.90;;;;;;4973322;28;20722;-78
2022/02/28 07:39:12;;;;;;;19.43;15.57;;;2.30;99.90;;;;;;4966916;28;20691;-79
2022/02/28 07:41:40;;;;;;;18.17;15.20;;;2.40;99.90;;;;;;4985651;28;20782;-79
2022/02/28 07:44:07;;;;;;;16.60;14.57;;;2.50;99.90;;;;;;4967014;28;20212;-79
2022/02/28 07:46:34;;;;;;;17.33;15.40;;;2.80;99.90;;;;;;4961780;28;20501;-77
2022/02/28 07:49:01;;;;;;;16.57;14.97;;;3.20;99.90;;;;;;4972771;28;20743;-77
2022/02/28 07:51:28;;;;;;;18.80;16.47;;;3.70;99.90;;;;;;4982648;28;20268;-77
2022/02/28 07:53:55;;;;;;;16.67;14.97;;;4.00;99.90;;;;;;4984493;28;20557;-78
2022/02/28 07:56:23;;;;;;;16.97;15.33;;;4.50;99.90;;;;;;4966043;28;20707;-77
2022/02/28 07:58:50;;;;;;;18.23;16.40;;;5.10;99.90;;;;;;4961948;28;20194;-77
2022/02/28 08:01:17;;;;;;;18.53;16.33;;;5.50;99.90;;;;;;4955497;28;20225;-77
2022/02/28 08:03:44;;;;;;;22.03;16.17;;;5.80;99.90;;;;;;4978780;28;20554;-77
2022/02/28 08:06:11;;;;;;;17.77;15.97;;;6.10;99.90;;;;;;4972831;28;20724;-77
2022/02/28 08:08:38;;;;;;;19.33;17.33;;;6.60;99.90;;;;;;4957560;28;20560;-76
2022/02/28 08:11:05;;;;;;;17.97;16.17;;;6.90;99.90;;;;;;4955723;28;20210;-77
2022/02/28 08:13:33;;;;;;;20.03;16.77;;;7.10;99.90;;;;;;4967355;28;20231;-77
2022/02/28 08:16:01;;;;;;;18.17;16.40;;;7.20;99.90;;;;;;4955503;28;20224;-77
2022/02/28 08:18:28;;;;;;;18.13;15.73;;;7.60;99.90;;;;;;4963230;28;20663;-77
2022/02/28 08:20:55;;;;;;;17.43;15.63;;;7.90;99.90;;;;;;4972929;28;20284;-78
2022/02/28 08:23:22;;;;;;;15.27;10.97;;;7.90;99.90;;;;;;4955473;28;20202;-77
2022/02/28 08:25:49;;;;;;;15.87;14.17;;;8.20;99.90;;;;;;4969113;28;20228;-77
2022/02/28 08:28:16;;;;;;;16.03;11.93;;;8.50;99.90;;;;;;4988297;28;20233;-79
2022/02/28 08:30:44;;;;;;;17.97;12.83;;;8.50;99.90;;;;;;4980724;28;20190;-77
2022/02/28 08:33:11;;;;;;;13.50;9.97;;;8.90;99.90;;;;;;4964824;28;20701;-77
2022/02/28 08:35:37;;;;;;;17.17;15.47;;;9.10;99.90;;;;;;4984098;28;20226;-77
2022/02/28 08:38:05;;;;;;;18.33;13.93;;;9.10;99.90;;;;;;4971572;28;20659;-77
2022/02/28 08:40:32;;;;;;;16.53;14.83;;;8.90;99.90;;;;;;4976287;28;20217;-77
2022/02/28 08:42:59;;;;;;;17.10;15.27;;;8.80;99.90;;;;;;4963977;28;20670;-76
2022/02/28 08:45:26;;;;;;;18.10;16.20;;;8.60;99.90;;;;;;4982791;28;20200;-77
2022/02/28 08:47:54;;;;;;;17.67;15.77;;;8.40;99.90;;;;;;4982242;28;20807;-78
2022/02/28 08:50:21;;;;;;;17.27;15.47;;;7.90;99.90;;;;;;4965856;28;20652;-79
2022/02/28 08:52:48;;;;;;;17.00;15.20;;;7.80;99.90;;;;;;4983550;28;20198;-76
2022/02/28 08:55:15;;;;;;;17.60;15.90;;;7.80;99.90;;;;;;4969736;28;20277;-76
2022/02/28 08:57:42;;;;;;;18.67;16.20;;;7.90;99.90;;;;;;4959224;28;20217;-77
2022/02/28 09:00:10;;;;;;;16.60;14.97;;;8.10;99.90;;;;;;4942972;28;20210;-77
2022/02/28 09:02:38;;;;;;;17.00;15.30;;;8.30;99.90;;;;;;4954047;28;20674;-79
2022/02/28 09:05:07;;;;;;;15.20;13.73;;;8.60;99.90;;;;;;4963108;28;20204;-79
2022/02/28 09:07:34;;;;;;;15.87;14.30;;;8.70;99.90;;;;;;4982676;28;20234;-78
2022/02/28 09:10:01;;;;;;;16.77;15.07;;;8.80;99.90;;;;;;4972799;28;20671;-76
2022/02/28 09:12:28;;;;;;;17.20;15.40;;;8.70;99.90;;;;;;4962232;28;20253;-76
2022/02/28 09:14:55;;;;;;;16.97;15.27;;;8.80;99.90;;;;;;4979956;28;20205;-76
2022/02/28 09:17:23;;;;;;;16.73;14.77;;;8.70;99.90;;;;;;4968634;28;20225;-76
2022/02/28 09:19:49;;;;;;;16.57;14.87;;;8.80;99.90;;;;;;4962939;28;20706;-76
2022/02/28 09:22:18;;;;;;;16.80;15.17;;;8.80;99.90;;;;;;4967286;28;20241;-78
2022/02/28 09:24:45;;;;;;;17.83;15.87;;;8.80;99.90;;;;;;4981802;28;20701;-76
2022/02/28 09:27:12;;;;;;;16.70;15.13;;;8.50;99.90;;;;;;4975898;28;20726;-76
2022/02/28 09:29:39;;;;;;;16.90;15.10;;;8.50;99.90;;;;;;4962920;28;20225;-77
2022/02/28 09:32:06;;;;;;;17.50;15.70;;;8.50;99.90;;;;;;4958075;28;20198;-78
2022/02/28 09:34:33;;;;;;;16.47;14.90;;;8.40;99.90;;;;;;4986252;28;20240;-74
2022/02/28 09:37:01;;;;;;;17.70;15.87;;;8.70;99.90;;;;;;4971237;28;20698;-77
2022/02/28 09:39:29;;;;;;;17.73;15.93;;;8.90;99.90;;;;;;4964363;28;20197;-77
2022/02/28 09:42:20;;;;;;;18.27;16.57;;;9.00;99.90;;;;;;4963781;28;20281;-77
2022/02/28 09:45:07;;;;;;;17.10;15.03;;;9.00;99.90;;;;;;4981954;28;20580;-77
2022/02/28 09:47:53;;;;;;;16.50;14.83;;;8.70;99.90;;;;;;4982662;28;20232;-77
2022/02/28 09:50:38;;;;;;;15.43;13.93;;;8.80;99.90;;;;;;4978377;28;20201;-76
2022/02/28 09:53:24;;;;;;;16.47;14.87;;;9.10;99.90;;;;;;4988544;28;20801;-77
2022/02/28 09:56:10;;;;;;;16.73;15.00;;;9.50;99.90;;;;;;4978695;28;20418;-75
2022/02/28 09:58:52;;;;;;;16.70;15.20;;;9.20;99.90;;;;;;4968404;28;20256;-77
2022/02/28 10:01:19;;;;;;;16.67;14.87;;;9.00;99.90;;;;;;4965603;28;20210;-77
2022/02/28 10:03:49;;;;;;;16.47;14.63;;;8.90;99.90;;;;;;4968627;28;20207;-76
2022/02/28 10:06:16;;;;;;;16.30;14.60;;;8.60;99.90;;;;;;4986738;23;20228;-78
2022/02/28 10:08:44;;;;;;;15.33;13.70;;;8.40;99.90;;;;;;5022510;28;20196;-77
2022/02/28 10:11:26;;;;;;;14.90;13.33;;;8.30;99.90;;;;;;5009479;28;20205;-78
2022/02/28 10:13:55;;;;;;;14.97;13.43;;;8.50;99.90;;;;;;5011239;28;20223;-77
2022/02/28 10:16:33;;;;;;;14.83;13.33;;;8.30;99.90;;;;;;5005420;28;20225;-78
2022/02/28 10:19:00;;;;;;;15.30;13.70;;;8.30;99.90;;;;;;5010405;28;20251;-78
2022/02/28 10:21:43;;;;;;;15.33;13.73;;;8.30;99.90;;;;;;5020707;28;20283;-78
2022/02/28 10:24:11;;;;;;;16.33;14.73;;;8.20;99.90;;;;;;5008868;28;20204;-78
2022/02/28 10:26:57;;;;;;;16.27;14.57;;;7.80;99.90;;;;;;4996699;28;20224;-78
2022/02/28 10:29:43;;;;;;;16.53;14.73;;;7.60;99.90;;;;;;5013997;28;20339;-78
2022/02/28 10:32:28;;;;;;;15.20;13.60;;;7.50;99.90;;;;;;5012284;28;20203;-78
2022/02/28 10:38:22;;;;;;;14.87;13.23;;;7.50;99.90;;;;;;4995574;28;20203;-78
2022/02/28 10:40:49;;;;;;;14.87;13.30;;;7.40;99.90;;;;;;5014390;28;20226;-77
2022/02/28 10:43:27;;;;;;;14.83;13.13;;;7.50;99.90;;;;;;5014648;28;20207;-78
2022/02/28 10:45:55;;;;;;;14.70;13.23;;;7.50;99.90;;;;;;4999156;28;20223;-77
2022/02/28 10:48:22;;;;;;;14.93;13.43;;;7.40;99.90;;;;;;4993956;28;20207;-76
2022/02/28 10:50:51;;;;;;;17.73;13.33;;;7.40;99.90;;;;;;4992970;28;20226;-76
2022/02/28 10:53:19;;;;;;;14.63;13.13;;;7.50;99.90;;;;;;5024574;28;20211;-76
2022/02/28 10:55:48;;;;;;;14.67;13.37;;;7.60;99.90;;;;;;5017594;28;20196;-76
2022/02/28 10:58:18;;;;;;;14.93;13.60;;;7.60;99.90;;;;;;5006124;28;20269;-76
2022/02/28 11:00:53;;;;;;;15.83;14.33;;;7.50;99.90;;;;;;5013271;28;20271;-75
2022/02/28 11:03:21;;;;;;;14.13;12.73;;;7.50;99.90;;;;;;5009877;28;20204;-76
2022/02/28 11:05:53;;;;;;;16.57;14.77;;;7.50;99.90;;;;;;5001840;28;20262;-76
2022/02/28 11:08:20;;;;;;;15.67;14.07;;;7.50;99.90;;;;;;5004925;28;20207;-75
2022/02/28 11:10:47;;;;;;;17.07;15.27;;;7.60;99.90;;;;;;5006624;28;20265;-76
2022/02/28 11:13:14;;;;;;;15.77;14.17;;;7.60;99.90;;;;;;4992029;28;20262;-77
2022/02/28 11:15:42;;;;;;;15.53;13.97;;;7.60;99.90;;;;;;5013815;28;20247;-77
2022/02/28 11:18:13;;;;;;;14.47;13.17;;;7.70;99.90;;;;;;4988249;28;20254;-77
2022/02/28 11:20:40;;;;;;;14.40;13.10;;;7.80;99.90;;;;;;5004654;28;20204;-78
2022/02/28 11:23:07;;;;;;;14.23;12.90;;;7.80;99.90;;;;;;4989328;28;20231;-78
2022/02/28 11:25:34;;;;;;;14.70;13.20;;;7.90;99.90;;;;;;5002830;28;20677;-79
2022/02/28 11:28:01;;;;;;;14.77;13.23;;;7.80;99.90;;;;;;4988397;28;20212;-77
2022/02/28 11:30:30;;;;;;;15.97;13.87;;;7.80;99.90;;;;;;4993147;28;20217;-78
2022/02/28 11:32:59;;;;;;;14.13;12.20;;;7.80;99.90;;;;;;5007878;28;20237;-77
2022/02/28 11:35:48;;;;;;;13.37;11.90;;;7.90;99.90;;;;;;5001577;28;20211;-76
2022/02/28 11:38:42;;;;;;;14.00;12.60;;;7.90;99.90;;;;;;4999193;28;20223;-77
2022/02/28 11:41:09;;;;;;;14.50;13.10;;;8.00;99.90;;;;;;5006912;28;20258;-80
2022/02/28 11:43:37;;;;;;;13.43;12.17;;;8.10;99.90;;;;;;5014942;28;20218;-78
2022/02/28 11:46:13;;;;;;;13.17;11.77;;;8.10;99.90;;;;;;5014657;28;20205;-79
2022/02/28 11:48:42;;;;;;;12.30;11.10;;;8.10;99.90;;;;;;5001079;28;20604;-78
2022/02/28 11:51:20;;;;;;;12.83;11.20;;;8.30;99.90;;;;;;5012990;28;20202;-79
2022/02/28 11:53:49;;;;;;;12.80;11.60;;;8.30;99.90;;;;;;5010863;28;20193;-77
2022/02/28 11:56:55;;;;;;;11.93;10.87;;;8.20;99.30;;;;;;5004341;28;20211;-77
2022/02/28 11:59:38;;;;;;;11.57;10.47;;;8.30;99.00;;;;;;5001987;28;20197;-77
2022/02/28 12:02:24;;;;;;;11.03;9.93;;;8.30;98.60;;;;;;5005928;28;20210;-76
2022/02/28 12:04:51;;;;;;;11.03;10.03;;;8.30;98.20;;;;;;4986127;28;20209;-77
2022/02/28 12:07:28;;;;;;;11.23;9.83;;;8.40;98.40;;;;;;5007912;28;20417;-78
2022/02/28 12:10:07;;;;;;;11.70;10.60;;;8.50;98.70;;;;;;5017342;28;20580;-80
2022/02/28 12:12:35;;;;;;;11.37;10.27;;;8.50;97.60;;;;;;5015360;28;20200;-79
2022/02/28 12:15:17;;;;;;;10.97;9.87;;;8.50;97.90;;;;;;5016794;28;20200;-81
2022/02/28 12:18:15;;;;;;;11.27;10.17;;;8.60;97.00;;;;;;5007192;28;20224;-77
2022/02/28 12:20:47;;;;;;;11.30;10.30;;;8.60;97.10;;;;;;4999961;28;20246;-77
2022/02/28 12:23:21;;;;;;;11.57;10.37;;;8.60;97.50;;;;;;5014234;28;20582;-77
2022/02/28 12:25:59;;;;;;;12.13;10.53;;;8.60;97.20;;;;;;4993947;28;20626;-77
2022/02/28 12:28:27;;;;;;;10.67;9.70;;;8.60;97.40;;;;;;4993414;28;20197;-77
2022/02/28 12:30:58;;;;;;;11.50;10.40;;;8.70;97.40;;;;;;5014134;28;20204;-77
2022/02/28 12:33:46;;;;;;;10.60;9.53;;;8.70;97.10;;;;;;4997528;28;20196;-77
2022/02/28 12:36:14;;;;;;;10.30;9.40;;;8.70;97.50;;;;;;5011062;28;20224;-78
2022/02/28 12:38:45;;;;;;;10.83;9.77;;;8.70;96.50;;;;;;5005888;28;20262;-79
2022/02/28 12:41:14;;;;;;;14.93;10.63;;;8.70;96.10;;;;;;5007947;28;20205;-79
2022/02/28 12:43:46;;;;;;;10.97;10.00;;;8.70;95.20;;;;;;5013294;28;20744;-79
2022/02/28 12:46:14;;;;;;;10.87;9.97;;;8.70;95.30;;;;;;5004614;28;20252;-79
2022/02/28 12:48:44;;;;;;;10.70;9.70;;;8.80;94.60;;;;;;5019167;28;20249;-79
2022/02/28 12:51:12;;;;;;;10.43;9.53;;;8.80;94.20;;;;;;5001257;28;20211;-80